Terminal Aerodrome Forecast
Issued by NWS

Home | Current Version | Previous Version | Text Only | Print | Product List | Glossary On
Versions: 1 2 3 4 5 6 7 8 9 10 11 12 13 14 15 16 17 18 19 20 21 22 23 24
000
FTUS45 KGJT 301133
TAFASE
TAF
KASE 301133Z 3012/3112 20003KT P6SM SCT070 BKN090
     FM301800 33004KT P6SM VCSH SCT040 OVC060
     FM310100 17003KT P6SM VCSH SCT030 OVC045
     FM310500 18003KT 2SM -SN BR OVC012=

USA.gov is the U.S. government's official web portal to all federal, state and local government web resources and services.